This is the latest recevied weather packets stored in our database for station/object K6CEG. If no packets are shown the sender has not sent any weather packets the latest 10 day(s).
| Time | Temp. | Humidity | Pressure | Rain* | Wind** | Luminosity | Snow |
|---|---|---|---|---|---|---|---|
| 1788285322 | 25.56° C | 54% | 1017.9 hPa | 0 mm | - | 710 W/m² | - |
| 1788285022 | 26.11° C | 55% | 1017.7 hPa | 0 mm | - | 736 W/m² | - |
| 1788284718 | 26.11° C | 52% | 1017.8 hPa | 0 mm | - | 756 W/m² | - |
| 1788284414 | 26.67° C | 52% | 1017.9 hPa | 0 mm | - | 760 W/m² | - |
| 1788284109 | 26.11° C | 52% | 1017.8 hPa | 0 mm | - | 731 W/m² | - |
| 1788283805 | 26.67° C | 53% | 1017.8 hPa | 0 mm | - | 687 W/m² | - |
| 1788283500 | 26.11° C | 53% | 1017.9 hPa | 0 mm | - | 626 W/m² | - |
| 1788283198 | 25.56° C | 54% | 1017.6 hPa | 0 mm | - | 613 W/m² | - |
| 1788282897 | 25° C | 55% | 1017.8 hPa | 0 mm | - | 655 W/m² | - |
| 1788282595 | 24.44° C | 57% | 1017.8 hPa | 0 mm | - | 586 W/m² | - |
| 1788282291 | 24.44° C | 57% | 1017.6 hPa | 0 mm | - | 583 W/m² | - |
| 1788281990 | 23.89° C | 59% | 1017.6 hPa | 0 mm | - | 596 W/m² | - |
| 1788281685 | 24.44° C | 57% | 1017.5 hPa | 0 mm | - | 532 W/m² | - |
| 1788281381 | 24.44° C | 55% | 1017.8 hPa | 0 mm | - | 505 W/m² | - |
| 1788281076 | 23.89° C | 58% | 1017.7 hPa | 0 mm | - | 470 W/m² | - |
| 1788280771 | 23.33° C | 60% | 1017.5 hPa | 0 mm | - | 494 W/m² | - |
| 1788280466 | 22.78° C | 61% | 1017.7 hPa | 0 mm | - | 104 W/m² | - |
| 1788280165 | 22.78° C | 61% | 1017.8 hPa | 0 mm | - | 440 W/m² | - |
| 1788279860 | 23.89° C | 59% | 1017.8 hPa | 0 mm | - | 86 W/m² | - |
| 1788279560 | 22.78° C | 61% | 1017.7 hPa | 0 mm | - | 88 W/m² | - |
| 1788279259 | 22.78° C | 62% | 1017.7 hPa | 0 mm | - | 322 W/m² | - |
| 1788278954 | 22.22° C | 63% | 1017.8 hPa | 0 mm | - | 305 W/m² | - |
| 1788278650 | 21.67° C | 65% | 1017.8 hPa | 0 mm | - | 310 W/m² | - |
| 1788278349 | 22.78° C | 63% | 1017.8 hPa | 0 mm | - | 269 W/m² | - |
| 1788278044 | 21.67° C | 65% | 1017.8 hPa | 0 mm | - | 243 W/m² | - |
* Rain latest hour (hover to see other rain measurements)
** Current wind speed in m/s (hover to see current wind gust speed)